sensor_id;sensor_type;location;lat;lon;timestamp;temperature;humidity
16515;DHT22;8370;52.556;7.970;2023-03-20T00:01:27;10.30;99.90
16515;DHT22;8370;52.556;7.970;2023-03-20T00:03:54;10.30;99.90
16515;DHT22;8370;52.556;7.970;2023-03-20T00:06:24;10.30;99.90
16515;DHT22;8370;52.556;7.970;2023-03-20T00:08:52;10.30;99.90
16515;DHT22;8370;52.556;7.970;2023-03-20T00:11:24;10.20;99.90
16515;DHT22;8370;52.556;7.970;2023-03-20T00:13:52;10.20;99.90
16515;DHT22;8370;52.556;7.970;2023-03-20T00:16:18;10.10;99.90
16515;DHT22;8370;52.556;7.970;2023-03-20T00:18:44;10.10;99.90
16515;DHT22;8370;52.556;7.970;2023-03-20T00:21:16;10.10;99.90
16515;DHT22;8370;52.556;7.970;2023-03-20T00:23:42;10.10;99.90
16515;DHT22;8370;52.556;7.970;2023-03-20T00:26:13;10.10;99.90
16515;DHT22;8370;52.556;7.970;2023-03-20T00:28:41;10.10;99.90
16515;DHT22;8370;52.556;7.970;2023-03-20T00:31:24;10.00;99.90
16515;DHT22;8370;52.556;7.970;2023-03-20T00:33:50;10.00;99.90
16515;DHT22;8370;52.556;7.970;2023-03-20T00:36:16;10.10;99.90
16515;DHT22;8370;52.556;7.970;2023-03-20T00:38:42;10.10;99.90
16515;DHT22;8370;52.556;7.970;2023-03-20T00:41:30;10.00;99.90
16515;DHT22;8370;52.556;7.970;2023-03-20T00:44:02;10.00;99.90
16515;DHT22;8370;52.556;7.970;2023-03-20T00:46:33;10.10;99.90
16515;DHT22;8370;52.556;7.970;2023-03-20T00:49:00;9.90;99.90
16515;DHT22;8370;52.556;7.970;2023-03-20T00:51:27;9.90;99.90
16515;DHT22;8370;52.556;7.970;2023-03-20T00:53:53;9.80;99.90
16515;DHT22;8370;52.556;7.970;2023-03-20T00:58:55;9.70;99.90
16515;DHT22;8370;52.556;7.970;2023-03-20T01:01:21;9.60;99.90
16515;DHT22;8370;52.556;7.970;2023-03-20T01:03:47;9.50;99.90
16515;DHT22;8370;52.556;7.970;2023-03-20T01:06:12;9.50;99.90
16515;DHT22;8370;52.556;7.970;2023-03-20T01:08:38;9.50;99.90
16515;DHT22;8370;52.556;7.970;2023-03-20T01:11:03;9.50;99.90
16515;DHT22;8370;52.556;7.970;2023-03-20T01:13:30;9.50;99.90
16515;DHT22;8370;52.556;7.970;2023-03-20T01:15:57;9.50;99.90
16515;DHT22;8370;52.556;7.970;2023-03-20T01:18:24;9.50;99.90
16515;DHT22;8370;52.556;7.970;2023-03-20T01:20:50;9.50;99.90
16515;DHT22;8370;52.556;7.970;2023-03-20T01:23:19;9.50;99.90
16515;DHT22;8370;52.556;7.970;2023-03-20T01:25:47;9.60;99.90
16515;DHT22;8370;52.556;7.970;2023-03-20T01:28:19;9.60;99.90
16515;DHT22;8370;52.556;7.970;2023-03-20T01:30:45;9.60;99.90
16515;DHT22;8370;52.556;7.970;2023-03-20T01:33:19;9.60;99.90
16515;DHT22;8370;52.556;7.970;2023-03-20T01:35:46;9.70;99.90
16515;DHT22;8370;52.556;7.970;2023-03-20T01:38:19;9.70;99.90
16515;DHT22;8370;52.556;7.970;2023-03-20T01:40:55;9.60;99.90
16515;DHT22;8370;52.556;7.970;2023-03-20T01:43:23;9.60;99.90
16515;DHT22;8370;52.556;7.970;2023-03-20T01:48:55;9.40;99.90
16515;DHT22;8370;52.556;7.970;2023-03-20T01:51:26;9.30;99.90
16515;DHT22;8370;52.556;7.970;2023-03-20T01:54:00;9.20;99.90
16515;DHT22;8370;52.556;7.970;2023-03-20T01:56:30;9.10;99.90
16515;DHT22;8370;52.556;7.970;2023-03-20T01:59:00;9.00;99.90
16515;DHT22;8370;52.556;7.970;2023-03-20T02:01:27;9.00;99.90
16515;DHT22;8370;52.556;7.970;2023-03-20T02:03:53;8.90;99.90
16515;DHT22;8370;52.556;7.970;2023-03-20T02:06:22;8.90;99.90
16515;DHT22;8370;52.556;7.970;2023-03-20T02:08:50;8.90;99.90
16515;DHT22;8370;52.556;7.970;2023-03-20T02:11:18;8.90;99.90
16515;DHT22;8370;52.556;7.970;2023-03-20T02:13:44;9.00;99.90
16515;DHT22;8370;52.556;7.970;2023-03-20T02:18:37;9.10;99.90
16515;DHT22;8370;52.556;7.970;2023-03-20T02:21:27;9.10;99.90
16515;DHT22;8370;52.556;7.970;2023-03-20T02:24:05;9.10;99.90
16515;DHT22;8370;52.556;7.970;2023-03-20T02:27:01;9.10;99.90
16515;DHT22;8370;52.556;7.970;2023-03-20T02:29:49;9.20;99.90
16515;DHT22;8370;52.556;7.970;2023-03-20T02:35:34;9.20;99.90
16515;DHT22;8370;52.556;7.970;2023-03-20T02:38:14;9.10;99.90
16515;DHT22;8370;52.556;7.970;2023-03-20T02:43:23;9.10;99.90
16515;DHT22;8370;52.556;7.970;2023-03-20T02:46:10;9.00;99.90
16515;DHT22;8370;52.556;7.970;2023-03-20T02:51:32;9.10;99.90
16515;DHT22;8370;52.556;7.970;2023-03-20T02:54:32;9.10;99.90
16515;DHT22;8370;52.556;7.970;2023-03-20T02:57:06;9.10;99.90
16515;DHT22;8370;52.556;7.970;2023-03-20T02:59:46;9.20;99.90
16515;DHT22;8370;52.556;7.970;2023-03-20T03:02:19;9.20;99.90
16515;DHT22;8370;52.556;7.970;2023-03-20T03:04:56;9.20;99.90
16515;DHT22;8370;52.556;7.970;2023-03-20T03:07:25;9.30;99.90
16515;DHT22;8370;52.556;7.970;2023-03-20T03:09:59;9.30;99.90
16515;DHT22;8370;52.556;7.970;2023-03-20T03:12:33;9.30;99.90
16515;DHT22;8370;52.556;7.970;2023-03-20T03:15:03;9.30;99.90
16515;DHT22;8370;52.556;7.970;2023-03-20T03:17:32;9.30;99.90
16515;DHT22;8370;52.556;7.970;2023-03-20T03:20:02;9.30;99.90
16515;DHT22;8370;52.556;7.970;2023-03-20T03:22:30;9.30;99.90
16515;DHT22;8370;52.556;7.970;2023-03-20T03:24:56;9.40;99.90
16515;DHT22;8370;52.556;7.970;2023-03-20T03:27:53;9.30;99.90
16515;DHT22;8370;52.556;7.970;2023-03-20T03:30:26;9.30;99.90
16515;DHT22;8370;52.556;7.970;2023-03-20T03:33:14;9.30;99.90
16515;DHT22;8370;52.556;7.970;2023-03-20T03:35:44;9.30;99.90
16515;DHT22;8370;52.556;7.970;2023-03-20T03:38:35;9.30;99.90
16515;DHT22;8370;52.556;7.970;2023-03-20T03:41:19;9.30;99.90
16515;DHT22;8370;52.556;7.970;2023-03-20T03:43:55;9.30;99.90
16515;DHT22;8370;52.556;7.970;2023-03-20T03:46:26;9.30;99.90
16515;DHT22;8370;52.556;7.970;2023-03-20T03:48:58;9.20;99.90
16515;DHT22;8370;52.556;7.970;2023-03-20T03:51:28;9.10;99.90
16515;DHT22;8370;52.556;7.970;2023-03-20T03:54:02;9.10;99.90
16515;DHT22;8370;52.556;7.970;2023-03-20T03:56:33;9.00;99.90
16515;DHT22;8370;52.556;7.970;2023-03-20T03:59:05;9.00;99.90
16515;DHT22;8370;52.556;7.970;2023-03-20T04:01:32;9.00;99.90
16515;DHT22;8370;52.556;7.970;2023-03-20T04:04:03;9.00;99.90
16515;DHT22;8370;52.556;7.970;2023-03-20T04:06:29;8.90;99.90
16515;DHT22;8370;52.556;7.970;2023-03-20T04:08:54;8.90;99.90
16515;DHT22;8370;52.556;7.970;2023-03-20T04:11:22;8.90;99.90
16515;DHT22;8370;52.556;7.970;2023-03-20T04:13:52;8.90;99.90
16515;DHT22;8370;52.556;7.970;2023-03-20T04:16:20;8.80;99.90
16515;DHT22;8370;52.556;7.970;2023-03-20T04:18:46;8.80;99.90
16515;DHT22;8370;52.556;7.970;2023-03-20T04:21:12;8.80;99.90
16515;DHT22;8370;52.556;7.970;2023-03-20T04:23:40;8.70;99.90
16515;DHT22;8370;52.556;7.970;2023-03-20T04:26:06;8.70;99.90
16515;DHT22;8370;52.556;7.970;2023-03-20T04:28:31;8.60;99.90
16515;DHT22;8370;52.556;7.970;2023-03-20T04:30:58;8.60;99.90
16515;DHT22;8370;52.556;7.970;2023-03-20T04:33:25;8.60;99.90
16515;DHT22;8370;52.556;7.970;2023-03-20T04:35:51;8.60;99.90
16515;DHT22;8370;52.556;7.970;2023-03-20T04:38:17;8.50;99.90
16515;DHT22;8370;52.556;7.970;2023-03-20T04:40:44;8.50;99.90
16515;DHT22;8370;52.556;7.970;2023-03-20T04:43:11;8.50;99.90
16515;DHT22;8370;52.556;7.970;2023-03-20T04:45:36;8.50;99.90
16515;DHT22;8370;52.556;7.970;2023-03-20T04:48:02;8.50;99.90
16515;DHT22;8370;52.556;7.970;2023-03-20T04:50:28;8.50;99.90
16515;DHT22;8370;52.556;7.970;2023-03-20T04:52:53;8.50;99.90
16515;DHT22;8370;52.556;7.970;2023-03-20T04:55:19;8.50;99.90
16515;DHT22;8370;52.556;7.970;2023-03-20T04:57:46;8.40;99.90
16515;DHT22;8370;52.556;7.970;2023-03-20T05:00:12;8.40;99.90
16515;DHT22;8370;52.556;7.970;2023-03-20T05:02:38;8.40;99.90
16515;DHT22;8370;52.556;7.970;2023-03-20T05:05:04;8.50;99.90
16515;DHT22;8370;52.556;7.970;2023-03-20T05:07:29;8.50;99.90
16515;DHT22;8370;52.556;7.970;2023-03-20T05:09:55;8.50;99.90
16515;DHT22;8370;52.556;7.970;2023-03-20T05:12:20;8.50;99.90
16515;DHT22;8370;52.556;7.970;2023-03-20T05:14:47;8.50;99.90
16515;DHT22;8370;52.556;7.970;2023-03-20T05:17:12;8.50;99.90
16515;DHT22;8370;52.556;7.970;2023-03-20T05:19:38;8.50;99.90
16515;DHT22;8370;52.556;7.970;2023-03-20T05:22:03;8.50;99.90
16515;DHT22;8370;52.556;7.970;2023-03-20T05:24:29;8.40;99.90
16515;DHT22;8370;52.556;7.970;2023-03-20T05:26:55;8.40;99.90
16515;DHT22;8370;52.556;7.970;2023-03-20T05:29:22;8.40;99.90
16515;DHT22;8370;52.556;7.970;2023-03-20T05:31:47;8.40;99.90
16515;DHT22;8370;52.556;7.970;2023-03-20T05:34:13;8.40;99.90
16515;DHT22;8370;52.556;7.970;2023-03-20T05:36:38;8.50;99.90
16515;DHT22;8370;52.556;7.970;2023-03-20T05:39:04;8.40;99.90
16515;DHT22;8370;52.556;7.970;2023-03-20T05:41:29;8.50;99.90
16515;DHT22;8370;52.556;7.970;2023-03-20T05:43:55;8.50;99.90
16515;DHT22;8370;52.556;7.970;2023-03-20T05:46:20;8.50;99.90
16515;DHT22;8370;52.556;7.970;2023-03-20T05:48:47;8.50;99.90
16515;DHT22;8370;52.556;7.970;2023-03-20T05:51:12;8.50;99.90
16515;DHT22;8370;52.556;7.970;2023-03-20T05:53:38;8.40;99.90
16515;DHT22;8370;52.556;7.970;2023-03-20T05:56:04;8.50;99.90
16515;DHT22;8370;52.556;7.970;2023-03-20T05:58:29;8.40;99.90
16515;DHT22;8370;52.556;7.970;2023-03-20T06:00:56;8.40;99.90
16515;DHT22;8370;52.556;7.970;2023-03-20T06:03:22;8.40;99.90
16515;DHT22;8370;52.556;7.970;2023-03-20T06:05:48;8.50;99.90
16515;DHT22;8370;52.556;7.970;2023-03-20T06:08:13;8.50;99.90
16515;DHT22;8370;52.556;7.970;2023-03-20T06:10:40;8.40;99.90
16515;DHT22;8370;52.556;7.970;2023-03-20T06:13:05;8.50;99.90
16515;DHT22;8370;52.556;7.970;2023-03-20T06:15:31;8.50;99.90
16515;DHT22;8370;52.556;7.970;2023-03-20T06:17:56;8.60;99.90
16515;DHT22;8370;52.556;7.970;2023-03-20T06:20:23;8.60;99.90
16515;DHT22;8370;52.556;7.970;2023-03-20T06:22:49;8.60;99.90
16515;DHT22;8370;52.556;7.970;2023-03-20T06:25:14;8.60;99.90
16515;DHT22;8370;52.556;7.970;2023-03-20T06:27:40;8.60;99.90
16515;DHT22;8370;52.556;7.970;2023-03-20T06:30:06;8.60;99.90
16515;DHT22;8370;52.556;7.970;2023-03-20T06:32:31;8.60;99.90
16515;DHT22;8370;52.556;7.970;2023-03-20T06:34:57;8.60;99.90
16515;DHT22;8370;52.556;7.970;2023-03-20T06:37:23;8.60;99.90
16515;DHT22;8370;52.556;7.970;2023-03-20T06:39:48;8.50;99.90
16515;DHT22;8370;52.556;7.970;2023-03-20T06:42:14;8.50;99.90
16515;DHT22;8370;52.556;7.970;2023-03-20T06:44:40;8.50;99.90
16515;DHT22;8370;52.556;7.970;2023-03-20T06:47:05;8.50;99.90
16515;DHT22;8370;52.556;7.970;2023-03-20T06:49:31;8.50;99.90
16515;DHT22;8370;52.556;7.970;2023-03-20T06:51:56;8.50;99.90
16515;DHT22;8370;52.556;7.970;2023-03-20T06:54:23;8.50;99.90
16515;DHT22;8370;52.556;7.970;2023-03-20T06:56:49;8.60;99.90
16515;DHT22;8370;52.556;7.970;2023-03-20T06:59:15;8.50;99.90
16515;DHT22;8370;52.556;7.970;2023-03-20T07:01:40;8.60;99.90
16515;DHT22;8370;52.556;7.970;2023-03-20T07:04:06;8.50;99.90
16515;DHT22;8370;52.556;7.970;2023-03-20T07:06:31;8.50;99.90
16515;DHT22;8370;52.556;7.970;2023-03-20T07:08:58;8.60;99.90
16515;DHT22;8370;52.556;7.970;2023-03-20T07:11:24;8.70;99.90
16515;DHT22;8370;52.556;7.970;2023-03-20T07:13:49;8.70;99.90
16515;DHT22;8370;52.556;7.970;2023-03-20T07:16:14;8.70;99.90
16515;DHT22;8370;52.556;7.970;2023-03-20T07:18:40;8.80;99.90
16515;DHT22;8370;52.556;7.970;2023-03-20T07:21:06;8.80;99.90
16515;DHT22;8370;52.556;7.970;2023-03-20T07:23:32;8.80;99.90
16515;DHT22;8370;52.556;7.970;2023-03-20T07:26:03;8.80;99.90
16515;DHT22;8370;52.556;7.970;2023-03-20T07:28:29;8.80;99.90
16515;DHT22;8370;52.556;7.970;2023-03-20T07:30:55;8.80;99.90
16515;DHT22;8370;52.556;7.970;2023-03-20T07:33:21;8.90;99.90
16515;DHT22;8370;52.556;7.970;2023-03-20T07:35:51;8.90;99.90
16515;DHT22;8370;52.556;7.970;2023-03-20T07:38:16;8.90;99.90
16515;DHT22;8370;52.556;7.970;2023-03-20T07:40:42;9.10;99.90
16515;DHT22;8370;52.556;7.970;2023-03-20T07:43:07;9.20;99.90
16515;DHT22;8370;52.556;7.970;2023-03-20T07:45:32;9.30;99.90
16515;DHT22;8370;52.556;7.970;2023-03-20T07:47:58;9.30;99.90
16515;DHT22;8370;52.556;7.970;2023-03-20T07:50:23;9.20;99.90
16515;DHT22;8370;52.556;7.970;2023-03-20T07:52:49;9.20;99.90
16515;DHT22;8370;52.556;7.970;2023-03-20T07:55:18;9.20;99.90
16515;DHT22;8370;52.556;7.970;2023-03-20T07:57:43;9.20;99.90
16515;DHT22;8370;52.556;7.970;2023-03-20T08:00:10;9.20;99.90
16515;DHT22;8370;52.556;7.970;2023-03-20T08:02:36;9.30;99.90
16515;DHT22;8370;52.556;7.970;2023-03-20T08:05:02;9.30;99.90
16515;DHT22;8370;52.556;7.970;2023-03-20T08:07:27;9.30;99.90
16515;DHT22;8370;52.556;7.970;2023-03-20T08:09:56;9.40;99.90
16515;DHT22;8370;52.556;7.970;2023-03-20T08:12:21;9.40;99.90
16515;DHT22;8370;52.556;7.970;2023-03-20T08:14:47;9.40;99.90
16515;DHT22;8370;52.556;7.970;2023-03-20T08:17:12;9.60;99.90
16515;DHT22;8370;52.556;7.970;2023-03-20T08:19:38;9.70;99.90
16515;DHT22;8370;52.556;7.970;2023-03-20T08:22:04;9.70;99.90
16515;DHT22;8370;52.556;7.970;2023-03-20T08:24:30;9.80;99.90
16515;DHT22;8370;52.556;7.970;2023-03-20T08:26:56;9.70;99.90
16515;DHT22;8370;52.556;7.970;2023-03-20T08:29:21;9.80;99.90
16515;DHT22;8370;52.556;7.970;2023-03-20T08:31:47;9.60;99.90
16515;DHT22;8370;52.556;7.970;2023-03-20T08:34:12;9.60;99.90
16515;DHT22;8370;52.556;7.970;2023-03-20T08:36:38;9.50;99.90
16515;DHT22;8370;52.556;7.970;2023-03-20T08:39:06;9.60;99.90
16515;DHT22;8370;52.556;7.970;2023-03-20T08:41:33;9.70;99.90
16515;DHT22;8370;52.556;7.970;2023-03-20T08:43:59;9.80;99.90
16515;DHT22;8370;52.556;7.970;2023-03-20T08:46:25;9.90;99.90
16515;DHT22;8370;52.556;7.970;2023-03-20T08:48:51;9.70;99.90
16515;DHT22;8370;52.556;7.970;2023-03-20T08:51:16;9.50;99.90
16515;DHT22;8370;52.556;7.970;2023-03-20T08:53:42;9.60;99.90
16515;DHT22;8370;52.556;7.970;2023-03-20T08:56:08;9.60;99.90
16515;DHT22;8370;52.556;7.970;2023-03-20T08:58:34;9.60;99.90
16515;DHT22;8370;52.556;7.970;2023-03-20T09:01:04;9.70;99.90
16515;DHT22;8370;52.556;7.970;2023-03-20T09:03:30;9.70;99.90
16515;DHT22;8370;52.556;7.970;2023-03-20T09:05:56;9.70;99.90
16515;DHT22;8370;52.556;7.970;2023-03-20T09:08:21;9.70;99.90
16515;DHT22;8370;52.556;7.970;2023-03-20T09:10:47;9.80;99.90
16515;DHT22;8370;52.556;7.970;2023-03-20T09:13:13;9.80;99.90
16515;DHT22;8370;52.556;7.970;2023-03-20T09:15:39;9.80;99.90
16515;DHT22;8370;52.556;7.970;2023-03-20T09:18:04;9.80;99.90
16515;DHT22;8370;52.556;7.970;2023-03-20T09:20:30;9.70;99.90
16515;DHT22;8370;52.556;7.970;2023-03-20T09:22:56;9.70;99.90
16515;DHT22;8370;52.556;7.970;2023-03-20T09:25:22;9.80;99.90
16515;DHT22;8370;52.556;7.970;2023-03-20T09:27:50;9.80;99.90
16515;DHT22;8370;52.556;7.970;2023-03-20T09:30:20;9.90;99.90
16515;DHT22;8370;52.556;7.970;2023-03-20T09:32:46;9.90;99.90
16515;DHT22;8370;52.556;7.970;2023-03-20T09:35:11;9.80;99.90
16515;DHT22;8370;52.556;7.970;2023-03-20T09:37:37;9.80;99.90
16515;DHT22;8370;52.556;7.970;2023-03-20T09:40:03;9.70;99.90
16515;DHT22;8370;52.556;7.970;2023-03-20T09:42:46;9.60;99.90
16515;DHT22;8370;52.556;7.970;2023-03-20T09:45:26;9.70;99.90
16515;DHT22;8370;52.556;7.970;2023-03-20T09:48:14;9.70;99.90
16515;DHT22;8370;52.556;7.970;2023-03-20T09:50:57;9.80;99.90
16515;DHT22;8370;52.556;7.970;2023-03-20T09:53:50;9.90;99.90
16515;DHT22;8370;52.556;7.970;2023-03-20T09:56:26;10.00;99.90
16515;DHT22;8370;52.556;7.970;2023-03-20T09:58:58;10.10;99.90
16515;DHT22;8370;52.556;7.970;2023-03-20T10:01:29;10.00;99.90
16515;DHT22;8370;52.556;7.970;2023-03-20T10:03:57;10.10;99.90
16515;DHT22;8370;52.556;7.970;2023-03-20T10:06:25;10.20;99.90
16515;DHT22;8370;52.556;7.970;2023-03-20T10:08:50;10.20;99.90
16515;DHT22;8370;52.556;7.970;2023-03-20T10:11:31;10.30;99.90
16515;DHT22;8370;52.556;7.970;2023-03-20T10:14:11;10.30;99.90
16515;DHT22;8370;52.556;7.970;2023-03-20T10:19:23;10.20;99.90
16515;DHT22;8370;52.556;7.970;2023-03-20T10:22:05;10.20;99.90
16515;DHT22;8370;52.556;7.970;2023-03-20T10:24:40;10.30;99.90
16515;DHT22;8370;52.556;7.970;2023-03-20T10:27:24;10.30;99.90
16515;DHT22;8370;52.556;7.970;2023-03-20T10:38:49;11.00;99.90
16515;DHT22;8370;52.556;7.970;2023-03-20T10:41:19;11.20;99.90
16515;DHT22;8370;52.556;7.970;2023-03-20T10:43:48;11.40;99.90
16515;DHT22;8370;52.556;7.970;2023-03-20T10:46:22;11.50;99.90
16515;DHT22;8370;52.556;7.970;2023-03-20T10:48:55;11.40;99.90
16515;DHT22;8370;52.556;7.970;2023-03-20T10:51:26;11.30;99.90
16515;DHT22;8370;52.556;7.970;2023-03-20T10:53:58;11.50;99.90
16515;DHT22;8370;52.556;7.970;2023-03-20T10:56:39;11.50;99.90
16515;DHT22;8370;52.556;7.970;2023-03-20T10:59:12;11.60;99.90
16515;DHT22;8370;52.556;7.970;2023-03-20T11:01:40;11.70;99.90
16515;DHT22;8370;52.556;7.970;2023-03-20T11:04:05;11.60;99.90
16515;DHT22;8370;52.556;7.970;2023-03-20T11:06:35;11.60;99.90
16515;DHT22;8370;52.556;7.970;2023-03-20T11:09:20;11.60;99.90
16515;DHT22;8370;52.556;7.970;2023-03-20T11:11:47;11.30;99.90
16515;DHT22;8370;52.556;7.970;2023-03-20T11:14:18;11.30;99.90
16515;DHT22;8370;52.556;7.970;2023-03-20T11:16:48;11.30;99.90
16515;DHT22;8370;52.556;7.970;2023-03-20T11:19:15;11.40;99.90
16515;DHT22;8370;52.556;7.970;2023-03-20T11:21:55;11.50;99.90
16515;DHT22;8370;52.556;7.970;2023-03-20T11:24:25;11.90;99.90
16515;DHT22;8370;52.556;7.970;2023-03-20T11:26:51;12.00;99.90
16515;DHT22;8370;52.556;7.970;2023-03-20T11:29:30;12.10;99.90
16515;DHT22;8370;52.556;7.970;2023-03-20T11:32:26;12.50;99.90
16515;DHT22;8370;52.556;7.970;2023-03-20T11:34:53;12.40;99.90
16515;DHT22;8370;52.556;7.970;2023-03-20T11:37:32;12.60;99.90
16515;DHT22;8370;52.556;7.970;2023-03-20T11:39:58;12.80;99.90
16515;DHT22;8370;52.556;7.970;2023-03-20T11:42:27;12.60;99.90
16515;DHT22;8370;52.556;7.970;2023-03-20T11:45:02;12.60;99.90
16515;DHT22;8370;52.556;7.970;2023-03-20T11:47:31;12.70;99.90
16515;DHT22;8370;52.556;7.970;2023-03-20T11:50:00;12.50;99.90
16515;DHT22;8370;52.556;7.970;2023-03-20T11:52:32;12.10;99.90
16515;DHT22;8370;52.556;7.970;2023-03-20T11:55:00;11.90;99.90
16515;DHT22;8370;52.556;7.970;2023-03-20T11:57:37;11.70;99.90
16515;DHT22;8370;52.556;7.970;2023-03-20T12:00:20;11.60;99.90
16515;DHT22;8370;52.556;7.970;2023-03-20T12:02:46;11.70;99.90
16515;DHT22;8370;52.556;7.970;2023-03-20T12:05:33;11.70;99.90
16515;DHT22;8370;52.556;7.970;2023-03-20T12:08:22;11.60;99.90
16515;DHT22;8370;52.556;7.970;2023-03-20T12:10:54;11.70;99.90
16515;DHT22;8370;52.556;7.970;2023-03-20T12:13:24;11.50;99.90
16515;DHT22;8370;52.556;7.970;2023-03-20T12:15:56;11.40;99.90
16515;DHT22;8370;52.556;7.970;2023-03-20T12:19:01;11.40;99.90
16515;DHT22;8370;52.556;7.970;2023-03-20T12:21:39;11.40;99.90
16515;DHT22;8370;52.556;7.970;2023-03-20T12:24:14;11.50;99.90
16515;DHT22;8370;52.556;7.970;2023-03-20T12:26:59;11.50;99.90
16515;DHT22;8370;52.556;7.970;2023-03-20T12:29:37;11.30;99.90
16515;DHT22;8370;52.556;7.970;2023-03-20T12:32:13;11.20;99.90
16515;DHT22;8370;52.556;7.970;2023-03-20T12:34:50;11.00;99.90
16515;DHT22;8370;52.556;7.970;2023-03-20T12:37:17;11.00;99.90
16515;DHT22;8370;52.556;7.970;2023-03-20T12:39:53;10.90;99.90
16515;DHT22;8370;52.556;7.970;2023-03-20T12:45:24;10.80;99.90
16515;DHT22;8370;52.556;7.970;2023-03-20T13:02:31;10.50;99.90
16515;DHT22;8370;52.556;7.970;2023-03-20T13:05:16;10.60;99.90
16515;DHT22;8370;52.556;7.970;2023-03-20T13:08:30;10.60;99.90
16515;DHT22;8370;52.556;7.970;2023-03-20T13:11:30;10.70;99.90
16515;DHT22;8370;52.556;7.970;2023-03-20T13:16:42;10.90;99.90
16515;DHT22;8370;52.556;7.970;2023-03-20T13:22:07;10.80;99.90
16515;DHT22;8370;52.556;7.970;2023-03-20T13:24:42;10.80;99.90
16515;DHT22;8370;52.556;7.970;2023-03-20T13:27:41;10.90;99.90
16515;DHT22;8370;52.556;7.970;2023-03-20T13:30:38;10.90;99.90
16515;DHT22;8370;52.556;7.970;2023-03-20T13:33:20;10.90;99.90
16515;DHT22;8370;52.556;7.970;2023-03-20T13:35:49;10.70;99.90
16515;DHT22;8370;52.556;7.970;2023-03-20T13:38:23;10.60;99.90
16515;DHT22;8370;52.556;7.970;2023-03-20T13:41:02;10.50;99.90
16515;DHT22;8370;52.556;7.970;2023-03-20T13:43:44;10.50;99.90
16515;DHT22;8370;52.556;7.970;2023-03-20T13:46:17;10.30;99.90
16515;DHT22;8370;52.556;7.970;2023-03-20T13:48:44;10.40;99.90
16515;DHT22;8370;52.556;7.970;2023-03-20T13:59:34;10.40;99.90
16515;DHT22;8370;52.556;7.970;2023-03-20T14:02:24;10.40;99.90
16515;DHT22;8370;52.556;7.970;2023-03-20T14:05:13;10.40;99.90
16515;DHT22;8370;52.556;7.970;2023-03-20T14:07:45;10.40;99.90
16515;DHT22;8370;52.556;7.970;2023-03-20T14:12:53;10.60;99.90
16515;DHT22;8370;52.556;7.970;2023-03-20T14:15:20;10.80;99.90
16515;DHT22;8370;52.556;7.970;2023-03-20T14:17:48;11.00;99.90
16515;DHT22;8370;52.556;7.970;2023-03-20T14:20:30;11.00;99.90
16515;DHT22;8370;52.556;7.970;2023-03-20T14:22:57;10.90;99.90
16515;DHT22;8370;52.556;7.970;2023-03-20T14:25:23;11.00;99.90
16515;DHT22;8370;52.556;7.970;2023-03-20T14:27:58;11.10;99.90
16515;DHT22;8370;52.556;7.970;2023-03-20T14:33:05;11.20;99.90
16515;DHT22;8370;52.556;7.970;2023-03-20T14:35:37;11.10;99.90
16515;DHT22;8370;52.556;7.970;2023-03-20T14:40:59;11.30;99.90
16515;DHT22;8370;52.556;7.970;2023-03-20T14:49:51;10.80;99.90
16515;DHT22;8370;52.556;7.970;2023-03-20T14:54:53;10.80;99.90
16515;DHT22;8370;52.556;7.970;2023-03-20T14:57:33;10.70;99.90
16515;DHT22;8370;52.556;7.970;2023-03-20T14:59:59;10.80;99.90
16515;DHT22;8370;52.556;7.970;2023-03-20T15:02:27;10.70;99.90
16515;DHT22;8370;52.556;7.970;2023-03-20T15:04:54;10.60;99.90
16515;DHT22;8370;52.556;7.970;2023-03-20T15:07:24;10.60;99.90
16515;DHT22;8370;52.556;7.970;2023-03-20T15:09:54;10.50;99.90
16515;DHT22;8370;52.556;7.970;2023-03-20T15:12:26;10.50;99.90
16515;DHT22;8370;52.556;7.970;2023-03-20T15:14:57;10.40;99.90
16515;DHT22;8370;52.556;7.970;2023-03-20T15:17:26;10.30;99.90
16515;DHT22;8370;52.556;7.970;2023-03-20T15:20:11;10.20;99.90
16515;DHT22;8370;52.556;7.970;2023-03-20T15:22:51;10.10;99.90
16515;DHT22;8370;52.556;7.970;2023-03-20T15:25:18;10.00;99.90
16515;DHT22;8370;52.556;7.970;2023-03-20T15:27:45;10.00;99.90
16515;DHT22;8370;52.556;7.970;2023-03-20T15:30:14;9.90;99.90
16515;DHT22;8370;52.556;7.970;2023-03-20T15:32:40;9.90;99.90
16515;DHT22;8370;52.556;7.970;2023-03-20T15:35:12;9.80;99.90
16515;DHT22;8370;52.556;7.970;2023-03-20T15:37:39;9.80;99.90
16515;DHT22;8370;52.556;7.970;2023-03-20T15:40:17;9.80;99.90
16515;DHT22;8370;52.556;7.970;2023-03-20T15:42:52;9.80;99.90
16515;DHT22;8370;52.556;7.970;2023-03-20T15:45:27;9.80;99.90
16515;DHT22;8370;52.556;7.970;2023-03-20T15:48:04;9.80;99.90
16515;DHT22;8370;52.556;7.970;2023-03-20T15:50:32;9.80;99.90
16515;DHT22;8370;52.556;7.970;2023-03-20T15:52:58;9.80;99.90
16515;DHT22;8370;52.556;7.970;2023-03-20T15:55:24;9.90;99.90
16515;DHT22;8370;52.556;7.970;2023-03-20T15:57:55;9.80;99.90
16515;DHT22;8370;52.556;7.970;2023-03-20T16:00:33;9.80;99.90
16515;DHT22;8370;52.556;7.970;2023-03-20T16:03:01;9.60;99.90
16515;DHT22;8370;52.556;7.970;2023-03-20T16:05:29;9.60;99.90
16515;DHT22;8370;52.556;7.970;2023-03-20T16:07:55;9.50;99.90
16515;DHT22;8370;52.556;7.970;2023-03-20T16:10:28;9.40;99.90
16515;DHT22;8370;52.556;7.970;2023-03-20T16:12:55;9.40;99.90
16515;DHT22;8370;52.556;7.970;2023-03-20T16:15:24;9.30;99.90
16515;DHT22;8370;52.556;7.970;2023-03-20T16:17:54;9.30;99.90
16515;DHT22;8370;52.556;7.970;2023-03-20T16:20:21;9.30;99.90
16515;DHT22;8370;52.556;7.970;2023-03-20T16:22:59;9.30;99.90
16515;DHT22;8370;52.556;7.970;2023-03-20T16:25:25;9.30;99.90
16515;DHT22;8370;52.556;7.970;2023-03-20T16:27:52;9.30;99.90
16515;DHT22;8370;52.556;7.970;2023-03-20T16:30:22;9.30;99.90
16515;DHT22;8370;52.556;7.970;2023-03-20T16:32:54;9.20;99.90
16515;DHT22;8370;52.556;7.970;2023-03-20T16:35:29;9.20;99.90
16515;DHT22;8370;52.556;7.970;2023-03-20T16:38:00;9.20;99.90
16515;DHT22;8370;52.556;7.970;2023-03-20T16:42:52;9.20;99.90
16515;DHT22;8370;52.556;7.970;2023-03-20T16:45:33;9.20;99.90
16515;DHT22;8370;52.556;7.970;2023-03-20T16:50:38;9.10;99.90
16515;DHT22;8370;52.556;7.970;2023-03-20T16:53:10;9.20;99.90
16515;DHT22;8370;52.556;7.970;2023-03-20T16:55:41;9.10;99.90
16515;DHT22;8370;52.556;7.970;2023-03-20T16:58:08;9.10;99.90
16515;DHT22;8370;52.556;7.970;2023-03-20T17:03:15;9.00;99.90
16515;DHT22;8370;52.556;7.970;2023-03-20T17:05:53;9.10;99.90
16515;DHT22;8370;52.556;7.970;2023-03-20T17:08:57;9.00;99.90
16515;DHT22;8370;52.556;7.970;2023-03-20T17:11:36;9.00;99.90
16515;DHT22;8370;52.556;7.970;2023-03-20T17:14:02;8.90;99.90
16515;DHT22;8370;52.556;7.970;2023-03-20T17:16:29;8.80;99.90
16515;DHT22;8370;52.556;7.970;2023-03-20T17:19:06;8.80;99.90
16515;DHT22;8370;52.556;7.970;2023-03-20T17:21:34;8.80;99.90
16515;DHT22;8370;52.556;7.970;2023-03-20T17:24:00;8.70;99.90
16515;DHT22;8370;52.556;7.970;2023-03-20T17:26:25;8.70;99.90
16515;DHT22;8370;52.556;7.970;2023-03-20T17:28:51;8.70;99.90
16515;DHT22;8370;52.556;7.970;2023-03-20T17:31:17;8.60;99.90
16515;DHT22;8370;52.556;7.970;2023-03-20T17:33:44;8.60;99.90
16515;DHT22;8370;52.556;7.970;2023-03-20T17:36:25;8.60;99.90
16515;DHT22;8370;52.556;7.970;2023-03-20T17:38:52;8.50;99.90
16515;DHT22;8370;52.556;7.970;2023-03-20T17:41:18;8.50;99.90
16515;DHT22;8370;52.556;7.970;2023-03-20T17:43:45;8.50;99.90